AAL808 KDEN-KBZN
Flight info
| Callsign | AAL808 |
|---|---|
| Flight time | 1h 18m |
| Altitude | 38000 |
| Route | XXWNG1 XXWNG TOCUD LOSST1 |
| Aircraft | B738/M-SDE2E3FGHIRWXY/LB1 |
Departure
| Time | 2026-04-25 13:23 |
|---|---|
| Airport | Denver International Airport (KDEN) |
Arrival
| Time | 2026-04-25 14:41 |
|---|---|
| Airport | Bozeman Yellowstone International Airport (KBZN) |
| Time | Latitude | Longitude | Altitude | Speed | Heading |
|---|---|---|---|---|---|
| 2026-04-25 13:13 | 39.85805 | -104.67902 | 5386 ft | 0 kts | 359° |
| 2026-04-25 13:15 | 39.85792 | -104.67902 | 5382 ft | 2 kts | 359° |
| 2026-04-25 13:15 | 39.85775 | -104.67902 | 5386 ft | 2 kts | 360° |
| 2026-04-25 13:15 | 39.85759 | -104.67902 | 5383 ft | 2 kts | 0° |
| 2026-04-25 13:15 | 39.85742 | -104.67902 | 5383 ft | 2 kts | 1° |
| 2026-04-25 13:16 | 39.85729 | -104.67903 | 5384 ft | 1 kts | 0° |
| 2026-04-25 13:16 | 39.85728 | -104.67903 | 5384 ft | 0 kts | 0° |
| 2026-04-25 13:18 | 39.85732 | -104.67912 | 5384 ft | 2 kts | 287° |
| 2026-04-25 13:18 | 39.85713 | -104.67942 | 5384 ft | 9 kts | 219° |
| 2026-04-25 13:19 | 39.85669 | -104.68061 | 5385 ft | 21 kts | 271° |
| 2026-04-25 13:19 | 39.85686 | -104.68253 | 5384 ft | 19 kts | 270° |
| 2026-04-25 13:19 | 39.85687 | -104.68453 | 5367 ft | 24 kts | 263° |
| 2026-04-25 13:19 | 39.85620 | -104.68518 | 5368 ft | 17 kts | 180° |
| 2026-04-25 13:20 | 39.85466 | -104.68519 | 5371 ft | 16 kts | 180° |
| 2026-04-25 13:20 | 39.85345 | -104.68521 | 5370 ft | 19 kts | 180° |
| 2026-04-25 13:20 | 39.85214 | -104.68553 | 5367 ft | 18 kts | 237° |
| 2026-04-25 13:20 | 39.85202 | -104.68736 | 5362 ft | 23 kts | 269° |
| 2026-04-25 13:21 | 39.85197 | -104.68967 | 5353 ft | 28 kts | 267° |
| 2026-04-25 13:21 | 39.85203 | -104.69236 | 5343 ft | 31 kts | 265° |
| 2026-04-25 13:21 | 39.85203 | -104.69533 | 5334 ft | 25 kts | 270° |
| 2026-04-25 13:21 | 39.85266 | -104.69660 | 5336 ft | 18 kts | 4° |
| 2026-04-25 13:22 | 39.85625 | -104.69656 | 5341 ft | 87 kts | 1° |
| 2026-04-25 13:22 | 39.86461 | -104.69649 | 5332 ft | 152 kts | 0° |
| 2026-04-25 13:22 | 39.87660 | -104.69644 | 5661 ft | 181 kts | 0° |
| 2026-04-25 13:23 | 39.90309 | -104.69619 | 7043 ft | 217 kts | 0° |
| 2026-04-25 13:23 | 39.91913 | -104.69575 | 7330 ft | 241 kts | 0° |
| 2026-04-25 13:23 | 39.93642 | -104.69524 | 7623 ft | 260 kts | 360° |
| 2026-04-25 13:23 | 39.95516 | -104.69473 | 8020 ft | 276 kts | 360° |
| 2026-04-25 13:24 | 39.97463 | -104.69424 | 8707 ft | 282 kts | 359° |
| 2026-04-25 13:24 | 39.99441 | -104.69380 | 9480 ft | 287 kts | 358° |
| 2026-04-25 13:24 | 40.01422 | -104.69337 | 9897 ft | 289 kts | 358° |
| 2026-04-25 13:24 | 40.03422 | -104.69295 | 9956 ft | 295 kts | 358° |
| 2026-04-25 13:25 | 40.05487 | -104.69107 | 10043 ft | 302 kts | 4° |
| 2026-04-25 13:25 | 40.07656 | -104.68745 | 10208 ft | 326 kts | 5° |
| 2026-04-25 13:25 | 40.09981 | -104.68340 | 10372 ft | 347 kts | 5° |
| 2026-04-25 13:25 | 40.12424 | -104.67933 | 10780 ft | 359 kts | 4° |
| 2026-04-25 13:26 | 40.14924 | -104.67530 | 11440 ft | 363 kts | 3° |
| 2026-04-25 13:26 | 40.17422 | -104.67604 | 12131 ft | 359 kts | 345° |
| 2026-04-25 13:26 | 40.19854 | -104.68335 | 12884 ft | 359 kts | 343° |
| 2026-04-25 13:26 | 40.22296 | -104.69083 | 13617 ft | 362 kts | 343° |
| 2026-04-25 13:27 | 40.24766 | -104.69806 | 14262 ft | 366 kts | 343° |
| 2026-04-25 13:27 | 40.27072 | -104.70461 | 14806 ft | 370 kts | 344° |
| 2026-04-25 13:27 | 40.29601 | -104.71171 | 15418 ft | 373 kts | 344° |
| 2026-04-25 13:27 | 40.32154 | -104.71888 | 16023 ft | 377 kts | 344° |
| 2026-04-25 13:28 | 40.34732 | -104.72614 | 16624 ft | 381 kts | 344° |
| 2026-04-25 13:28 | 40.35573 | -104.72851 | 16819 ft | 382 kts | 344° |
| 2026-04-25 13:28 | 40.39937 | -104.74082 | 17782 ft | 389 kts | 344° |
| 2026-04-25 13:28 | 40.42595 | -104.74833 | 18344 ft | 393 kts | 343° |
| 2026-04-25 13:29 | 40.45286 | -104.75594 | 18819 ft | 397 kts | 343° |
| 2026-04-25 13:29 | 40.47995 | -104.76361 | 19328 ft | 400 kts | 343° |
| 2026-04-25 13:29 | 40.50726 | -104.77133 | 19830 ft | 403 kts | 343° |
| 2026-04-25 13:30 | 40.56260 | -104.78702 | 20800 ft | 410 kts | 343° |
| 2026-04-25 13:30 | 40.59056 | -104.79495 | 21268 ft | 413 kts | 343° |
| 2026-04-25 13:30 | 40.61878 | -104.80297 | 21735 ft | 416 kts | 343° |
| 2026-04-25 13:31 | 40.67570 | -104.81916 | 22653 ft | 421 kts | 343° |
| 2026-04-25 13:31 | 40.70444 | -104.82735 | 23083 ft | 424 kts | 343° |
| 2026-04-25 13:31 | 40.73337 | -104.83559 | 23527 ft | 427 kts | 343° |
| 2026-04-25 13:31 | 40.76249 | -104.84390 | 23895 ft | 429 kts | 343° |
| 2026-04-25 13:32 | 40.79123 | -104.85412 | 24254 ft | 425 kts | 332° |
| 2026-04-25 13:32 | 40.81718 | -104.87236 | 24652 ft | 422 kts | 326° |
| 2026-04-25 13:32 | 40.84254 | -104.89183 | 25053 ft | 423 kts | 325° |
| 2026-04-25 13:32 | 40.86801 | -104.91148 | 25412 ft | 425 kts | 325° |
| 2026-04-25 13:33 | 40.89367 | -104.93113 | 25758 ft | 427 kts | 325° |
| 2026-04-25 13:33 | 40.91952 | -104.95077 | 26105 ft | 429 kts | 326° |
| 2026-04-25 13:33 | 40.94519 | -104.97015 | 26439 ft | 431 kts | 326° |
| 2026-04-25 13:33 | 40.96285 | -104.98343 | 26666 ft | 433 kts | 326° |
| 2026-04-25 13:34 | 40.99763 | -105.00954 | 27103 ft | 435 kts | 326° |
| 2026-04-25 13:34 | 41.02406 | -105.02938 | 27416 ft | 437 kts | 326° |
| 2026-04-25 13:34 | 41.05059 | -105.04930 | 27723 ft | 439 kts | 326° |
| 2026-04-25 13:34 | 41.07717 | -105.06929 | 28018 ft | 441 kts | 326° |
| 2026-04-25 13:35 | 41.10395 | -105.08945 | 28316 ft | 443 kts | 326° |
| 2026-04-25 13:35 | 41.13082 | -105.10969 | 28603 ft | 445 kts | 326° |
| 2026-04-25 13:35 | 41.15775 | -105.13000 | 28893 ft | 446 kts | 325° |
| 2026-04-25 13:35 | 41.18475 | -105.15039 | 29261 ft | 446 kts | 325° |
| 2026-04-25 13:36 | 41.21162 | -105.17067 | 29730 ft | 443 kts | 325° |
| 2026-04-25 13:36 | 41.23839 | -105.19091 | 30161 ft | 440 kts | 325° |
| 2026-04-25 13:36 | 41.26498 | -105.21103 | 30498 ft | 439 kts | 325° |
| 2026-04-25 13:36 | 41.29147 | -105.23112 | 30804 ft | 438 kts | 325° |
| 2026-04-25 13:37 | 41.31792 | -105.25120 | 31129 ft | 437 kts | 325° |
| 2026-04-25 13:37 | 41.34427 | -105.27121 | 31478 ft | 435 kts | 324° |
| 2026-04-25 13:37 | 41.37054 | -105.29118 | 31833 ft | 434 kts | 324° |
| 2026-04-25 13:37 | 41.39672 | -105.31110 | 32167 ft | 432 kts | 324° |
| 2026-04-25 13:38 | 41.42282 | -105.33099 | 32474 ft | 431 kts | 324° |
| 2026-04-25 13:38 | 41.44886 | -105.35084 | 32792 ft | 430 kts | 324° |
| 2026-04-25 13:38 | 41.47319 | -105.37316 | 33108 ft | 419 kts | 311° |
| 2026-04-25 13:38 | 41.49220 | -105.40202 | 33418 ft | 412 kts | 303° |
| 2026-04-25 13:39 | 41.50973 | -105.43204 | 33749 ft | 409 kts | 303° |
| 2026-04-25 13:39 | 41.52681 | -105.46178 | 34025 ft | 408 kts | 303° |
| 2026-04-25 13:39 | 41.54429 | -105.49225 | 34247 ft | 408 kts | 303° |
| 2026-04-25 13:39 | 41.56140 | -105.52198 | 34437 ft | 408 kts | 303° |
| 2026-04-25 13:40 | 41.57879 | -105.55204 | 34650 ft | 408 kts | 303° |
| 2026-04-25 13:40 | 41.59618 | -105.58201 | 34882 ft | 408 kts | 303° |
| 2026-04-25 13:40 | 41.61359 | -105.61194 | 35084 ft | 408 kts | 303° |
| 2026-04-25 13:40 | 41.63102 | -105.64186 | 35243 ft | 409 kts | 303° |
| 2026-04-25 13:41 | 41.64853 | -105.67194 | 35410 ft | 409 kts | 303° |
| 2026-04-25 13:41 | 41.66600 | -105.70194 | 35617 ft | 409 kts | 303° |
| 2026-04-25 13:41 | 41.68347 | -105.73197 | 35805 ft | 409 kts | 303° |
| 2026-04-25 13:41 | 41.70091 | -105.76198 | 35909 ft | 409 kts | 303° |
| 2026-04-25 13:42 | 41.71840 | -105.79211 | 35902 ft | 410 kts | 303° |
| 2026-04-25 13:42 | 41.75334 | -105.85239 | 35916 ft | 409 kts | 303° |
| 2026-04-25 13:43 | 41.78795 | -105.91221 | 35914 ft | 409 kts | 303° |
| 2026-04-25 13:43 | 41.82272 | -105.97244 | 35906 ft | 408 kts | 303° |
| 2026-04-25 13:44 | 41.85739 | -106.03262 | 35917 ft | 407 kts | 303° |
| 2026-04-25 13:44 | 41.89207 | -106.09294 | 35915 ft | 407 kts | 303° |
| 2026-04-25 13:45 | 41.92665 | -106.15320 | 35919 ft | 407 kts | 303° |
| 2026-04-25 13:45 | 41.96122 | -106.21358 | 35924 ft | 407 kts | 302° |
| 2026-04-25 13:46 | 41.99575 | -106.27399 | 35931 ft | 408 kts | 302° |
| 2026-04-25 13:46 | 42.03032 | -106.33460 | 35937 ft | 408 kts | 302° |
| 2026-04-25 13:47 | 42.06487 | -106.39529 | 35946 ft | 408 kts | 302° |
| 2026-04-25 13:47 | 42.09939 | -106.45606 | 35947 ft | 409 kts | 302° |
| 2026-04-25 13:48 | 42.13390 | -106.51692 | 35954 ft | 408 kts | 302° |
| 2026-04-25 13:48 | 42.16812 | -106.57739 | 35965 ft | 409 kts | 302° |
| 2026-04-25 13:49 | 42.20257 | -106.63840 | 35975 ft | 408 kts | 302° |
| 2026-04-25 13:49 | 42.23115 | -106.68912 | 35984 ft | 408 kts | 302° |
| 2026-04-25 13:50 | 42.26570 | -106.75051 | 35990 ft | 408 kts | 302° |
| 2026-04-25 13:50 | 42.29972 | -106.81112 | 35995 ft | 407 kts | 302° |
| 2026-04-25 13:51 | 42.33383 | -106.87200 | 36007 ft | 406 kts | 302° |
| 2026-04-25 13:51 | 42.36788 | -106.93289 | 36013 ft | 406 kts | 302° |
| 2026-04-25 13:52 | 42.40185 | -106.99374 | 36016 ft | 405 kts | 302° |
| 2026-04-25 13:52 | 42.43570 | -107.05453 | 36026 ft | 404 kts | 302° |
| 2026-04-25 13:53 | 42.46942 | -107.11521 | 36029 ft | 403 kts | 302° |
| 2026-04-25 13:53 | 42.50307 | -107.17587 | 36031 ft | 403 kts | 302° |
| 2026-04-25 13:54 | 42.53666 | -107.23656 | 36039 ft | 402 kts | 302° |
| 2026-04-25 13:54 | 42.57029 | -107.29744 | 36039 ft | 402 kts | 302° |
| 2026-04-25 13:55 | 42.60360 | -107.35787 | 36038 ft | 402 kts | 302° |
| 2026-04-25 13:55 | 42.63708 | -107.41873 | 36037 ft | 403 kts | 302° |
| 2026-04-25 13:56 | 42.67067 | -107.47991 | 36042 ft | 403 kts | 301° |
| 2026-04-25 13:56 | 42.70419 | -107.54108 | 36043 ft | 404 kts | 301° |
| 2026-04-25 13:57 | 42.73774 | -107.60245 | 36045 ft | 404 kts | 301° |
| 2026-04-25 13:57 | 42.77110 | -107.66358 | 36044 ft | 405 kts | 301° |
| 2026-04-25 13:58 | 42.80463 | -107.72516 | 36041 ft | 405 kts | 301° |
| 2026-04-25 13:58 | 42.83822 | -107.78697 | 36037 ft | 405 kts | 301° |
| 2026-04-25 13:59 | 42.87174 | -107.84879 | 36040 ft | 406 kts | 301° |
| 2026-04-25 13:59 | 42.90527 | -107.91073 | 36033 ft | 406 kts | 301° |
| 2026-04-25 14:00 | 42.93878 | -107.97279 | 36033 ft | 406 kts | 301° |
| 2026-04-25 14:00 | 42.97205 | -108.03452 | 36027 ft | 406 kts | 301° |
| 2026-04-25 14:01 | 43.00550 | -108.09673 | 36020 ft | 406 kts | 301° |
| 2026-04-25 14:01 | 43.03893 | -108.15901 | 36010 ft | 406 kts | 301° |
| 2026-04-25 14:02 | 43.07234 | -108.22139 | 35999 ft | 406 kts | 301° |
| 2026-04-25 14:02 | 43.10574 | -108.28390 | 35993 ft | 407 kts | 301° |
| 2026-04-25 14:03 | 43.13913 | -108.34651 | 35989 ft | 407 kts | 301° |
| 2026-04-25 14:03 | 43.17231 | -108.40887 | 35985 ft | 407 kts | 301° |
| 2026-04-25 14:04 | 43.20586 | -108.47204 | 35996 ft | 408 kts | 301° |
| 2026-04-25 14:04 | 43.23902 | -108.53462 | 36013 ft | 408 kts | 301° |
| 2026-04-25 14:05 | 43.27241 | -108.59776 | 36026 ft | 409 kts | 301° |
| 2026-04-25 14:05 | 43.30465 | -108.65888 | 36038 ft | 410 kts | 301° |
| 2026-04-25 14:06 | 43.33804 | -108.72228 | 36053 ft | 410 kts | 301° |
| 2026-04-25 14:06 | 43.37150 | -108.78597 | 36059 ft | 411 kts | 301° |
| 2026-04-25 14:07 | 43.40494 | -108.84975 | 36060 ft | 411 kts | 301° |
| 2026-04-25 14:07 | 43.43817 | -108.91325 | 36056 ft | 411 kts | 301° |
| 2026-04-25 14:08 | 43.47155 | -108.97721 | 36065 ft | 411 kts | 301° |
| 2026-04-25 14:08 | 43.50495 | -109.04133 | 36064 ft | 411 kts | 301° |
| 2026-04-25 14:09 | 43.53827 | -109.10543 | 36072 ft | 411 kts | 301° |
| 2026-04-25 14:09 | 43.57154 | -109.16958 | 36057 ft | 411 kts | 301° |
| 2026-04-25 14:10 | 43.60472 | -109.23368 | 36062 ft | 410 kts | 301° |
| 2026-04-25 14:10 | 43.63786 | -109.29786 | 36049 ft | 410 kts | 301° |
| 2026-04-25 14:11 | 43.67099 | -109.36217 | 36020 ft | 411 kts | 301° |
| 2026-04-25 14:11 | 43.70410 | -109.42658 | 36017 ft | 411 kts | 301° |
| 2026-04-25 14:12 | 43.73722 | -109.49114 | 36009 ft | 412 kts | 301° |
| 2026-04-25 14:12 | 43.77037 | -109.55593 | 36019 ft | 413 kts | 301° |
| 2026-04-25 14:13 | 43.80324 | -109.62028 | 36040 ft | 411 kts | 301° |
| 2026-04-25 14:13 | 43.83628 | -109.68512 | 36061 ft | 412 kts | 301° |
| 2026-04-25 14:14 | 43.86939 | -109.75025 | 36087 ft | 413 kts | 301° |
| 2026-04-25 14:14 | 43.90251 | -109.81554 | 36121 ft | 414 kts | 301° |
| 2026-04-25 14:15 | 43.93572 | -109.88113 | 36130 ft | 416 kts | 301° |
| 2026-04-25 14:15 | 43.96894 | -109.94694 | 36126 ft | 417 kts | 301° |
| 2026-04-25 14:16 | 44.00203 | -110.01258 | 36126 ft | 418 kts | 301° |
| 2026-04-25 14:16 | 44.03537 | -110.07891 | 35815 ft | 422 kts | 301° |
| 2026-04-25 14:16 | 44.05337 | -110.11096 | 35447 ft | 421 kts | 308° |
| 2026-04-25 14:17 | 44.07458 | -110.13902 | 35045 ft | 421 kts | 315° |
| 2026-04-25 14:17 | 44.09806 | -110.16333 | 34656 ft | 422 kts | 323° |
| 2026-04-25 14:17 | 44.12366 | -110.18333 | 34250 ft | 421 kts | 326° |
| 2026-04-25 14:17 | 44.14938 | -110.20233 | 33809 ft | 418 kts | 326° |
| 2026-04-25 14:18 | 44.17503 | -110.22105 | 33359 ft | 414 kts | 326° |
| 2026-04-25 14:18 | 44.20038 | -110.23961 | 32918 ft | 410 kts | 326° |
| 2026-04-25 14:18 | 44.22546 | -110.25809 | 32491 ft | 406 kts | 325° |
| 2026-04-25 14:18 | 44.25020 | -110.27645 | 32111 ft | 401 kts | 325° |
| 2026-04-25 14:19 | 44.27472 | -110.29475 | 31703 ft | 397 kts | 325° |
| 2026-04-25 14:19 | 44.29893 | -110.31290 | 31312 ft | 393 kts | 324° |
| 2026-04-25 14:19 | 44.32290 | -110.33091 | 30929 ft | 390 kts | 324° |
| 2026-04-25 14:19 | 44.34669 | -110.34881 | 30537 ft | 386 kts | 324° |
| 2026-04-25 14:20 | 44.37022 | -110.36654 | 30162 ft | 383 kts | 324° |
| 2026-04-25 14:20 | 44.37813 | -110.37250 | 30000 ft | 382 kts | 324° |
| 2026-04-25 14:20 | 44.41666 | -110.40158 | 29305 ft | 375 kts | 324° |
| 2026-04-25 14:20 | 44.43947 | -110.41880 | 28908 ft | 370 kts | 324° |
| 2026-04-25 14:21 | 44.46200 | -110.43583 | 28521 ft | 366 kts | 325° |
| 2026-04-25 14:21 | 44.48425 | -110.45266 | 28135 ft | 362 kts | 325° |
| 2026-04-25 14:21 | 44.50630 | -110.46936 | 27737 ft | 358 kts | 325° |
| 2026-04-25 14:21 | 44.52810 | -110.48590 | 27380 ft | 354 kts | 325° |
| 2026-04-25 14:22 | 44.54968 | -110.50227 | 26996 ft | 352 kts | 326° |
| 2026-04-25 14:22 | 44.57085 | -110.51836 | 26625 ft | 349 kts | 326° |
| 2026-04-25 14:22 | 44.59214 | -110.53455 | 26249 ft | 347 kts | 326° |
| 2026-04-25 14:22 | 44.61330 | -110.55065 | 25895 ft | 344 kts | 326° |
| 2026-04-25 14:23 | 44.63429 | -110.56663 | 25535 ft | 342 kts | 327° |
| 2026-04-25 14:23 | 44.65514 | -110.58252 | 25177 ft | 340 kts | 327° |
| 2026-04-25 14:23 | 44.67591 | -110.59836 | 24823 ft | 338 kts | 327° |
| 2026-04-25 14:23 | 44.69654 | -110.61410 | 24474 ft | 337 kts | 327° |
| 2026-04-25 14:24 | 44.71709 | -110.62980 | 24118 ft | 336 kts | 327° |
| 2026-04-25 14:24 | 44.73758 | -110.64546 | 23756 ft | 335 kts | 328° |
| 2026-04-25 14:24 | 44.75800 | -110.66109 | 23358 ft | 334 kts | 328° |
| 2026-04-25 14:24 | 44.77840 | -110.67671 | 22959 ft | 332 kts | 328° |
| 2026-04-25 14:25 | 44.79865 | -110.69222 | 22583 ft | 330 kts | 328° |
| 2026-04-25 14:25 | 44.81874 | -110.70762 | 22244 ft | 327 kts | 328° |
| 2026-04-25 14:25 | 44.83869 | -110.72292 | 21889 ft | 326 kts | 328° |
| 2026-04-25 14:25 | 44.84513 | -110.72786 | 21772 ft | 325 kts | 328° |
| 2026-04-25 14:26 | 44.87824 | -110.75331 | 21195 ft | 322 kts | 328° |
| 2026-04-25 14:26 | 44.89782 | -110.76836 | 20864 ft | 319 kts | 328° |
| 2026-04-25 14:26 | 44.91728 | -110.78334 | 20528 ft | 317 kts | 328° |
| 2026-04-25 14:26 | 44.93661 | -110.79824 | 20192 ft | 316 kts | 328° |
| 2026-04-25 14:27 | 44.95557 | -110.81286 | 19872 ft | 313 kts | 328° |
| 2026-04-25 14:27 | 44.97464 | -110.82757 | 19545 ft | 311 kts | 328° |
| 2026-04-25 14:27 | 44.99355 | -110.84217 | 19227 ft | 309 kts | 328° |
| 2026-04-25 14:27 | 45.01239 | -110.85673 | 18910 ft | 308 kts | 328° |
| 2026-04-25 14:28 | 45.03114 | -110.87123 | 18582 ft | 308 kts | 328° |
| 2026-04-25 14:28 | 45.04991 | -110.88577 | 18237 ft | 306 kts | 328° |
| 2026-04-25 14:28 | 45.06858 | -110.90023 | 17868 ft | 305 kts | 328° |
| 2026-04-25 14:28 | 45.08718 | -110.91464 | 17503 ft | 304 kts | 328° |
| 2026-04-25 14:29 | 45.10563 | -110.92895 | 17238 ft | 299 kts | 328° |
| 2026-04-25 14:29 | 45.12356 | -110.94285 | 17127 ft | 290 kts | 328° |
| 2026-04-25 14:29 | 45.14110 | -110.95681 | 16906 ft | 288 kts | 326° |
| 2026-04-25 14:29 | 45.15820 | -110.97201 | 16648 ft | 293 kts | 324° |
| 2026-04-25 14:30 | 45.17556 | -110.98795 | 16348 ft | 300 kts | 324° |
| 2026-04-25 14:30 | 45.21067 | -111.02019 | 15717 ft | 304 kts | 324° |
| 2026-04-25 14:30 | 45.22847 | -111.03644 | 15389 ft | 305 kts | 325° |
| 2026-04-25 14:31 | 45.24631 | -111.05268 | 15093 ft | 303 kts | 325° |
| 2026-04-25 14:31 | 45.26398 | -111.06876 | 14783 ft | 300 kts | 325° |
| 2026-04-25 14:31 | 45.28150 | -111.08469 | 14479 ft | 297 kts | 325° |
| 2026-04-25 14:31 | 45.29884 | -111.10047 | 14198 ft | 295 kts | 325° |
| 2026-04-25 14:32 | 45.31602 | -111.11611 | 13892 ft | 292 kts | 325° |
| 2026-04-25 14:32 | 45.33308 | -111.13165 | 13580 ft | 290 kts | 326° |
| 2026-04-25 14:32 | 45.34996 | -111.14704 | 13275 ft | 287 kts | 325° |
| 2026-04-25 14:32 | 45.36672 | -111.16234 | 12974 ft | 285 kts | 326° |
| 2026-04-25 14:33 | 45.38329 | -111.17746 | 12713 ft | 282 kts | 326° |
| 2026-04-25 14:33 | 45.39972 | -111.19247 | 12438 ft | 277 kts | 326° |
| 2026-04-25 14:33 | 45.41586 | -111.20661 | 12148 ft | 270 kts | 334° |
| 2026-04-25 14:33 | 45.43397 | -111.21167 | 11876 ft | 266 kts | 1° |
| 2026-04-25 14:34 | 45.45186 | -111.20578 | 11604 ft | 264 kts | 21° |
| 2026-04-25 14:34 | 45.46827 | -111.19431 | 11359 ft | 261 kts | 26° |
| 2026-04-25 14:34 | 45.48342 | -111.18270 | 11120 ft | 251 kts | 26° |
| 2026-04-25 14:34 | 45.49853 | -111.17119 | 10824 ft | 241 kts | 26° |
| 2026-04-25 14:35 | 45.51304 | -111.16033 | 10600 ft | 230 kts | 25° |
| 2026-04-25 14:35 | 45.52759 | -111.15127 | 10221 ft | 225 kts | 19° |
| 2026-04-25 14:35 | 45.54191 | -111.14358 | 9826 ft | 221 kts | 18° |
| 2026-04-25 14:35 | 45.55623 | -111.13594 | 9448 ft | 218 kts | 18° |
| 2026-04-25 14:36 | 45.57042 | -111.12833 | 9029 ft | 217 kts | 19° |
| 2026-04-25 14:36 | 45.58433 | -111.12083 | 8652 ft | 211 kts | 19° |
| 2026-04-25 14:36 | 45.59796 | -111.11343 | 8258 ft | 207 kts | 19° |
| 2026-04-25 14:36 | 45.61122 | -111.10623 | 7948 ft | 199 kts | 19° |
| 2026-04-25 14:37 | 45.62394 | -111.09930 | 7682 ft | 192 kts | 19° |
| 2026-04-25 14:37 | 45.63222 | -111.09478 | 7507 ft | 186 kts | 19° |
| 2026-04-25 14:37 | 45.64427 | -111.08821 | 7352 ft | 188 kts | 19° |
| 2026-04-25 14:37 | 45.65601 | -111.08179 | 7323 ft | 171 kts | 19° |
| 2026-04-25 14:38 | 45.66657 | -111.07602 | 7011 ft | 162 kts | 19° |
| 2026-04-25 14:38 | 45.67696 | -111.07034 | 6519 ft | 155 kts | 19° |
| 2026-04-25 14:38 | 45.68703 | -111.06512 | 5805 ft | 154 kts | 14° |
| 2026-04-25 14:38 | 45.69747 | -111.06323 | 5380 ft | 141 kts | 355° |
| 2026-04-25 14:39 | 45.70643 | -111.06502 | 5230 ft | 138 kts | 344° |
| 2026-04-25 14:39 | 45.71612 | -111.07077 | 5291 ft | 159 kts | 329° |
| 2026-04-25 14:39 | 45.72516 | -111.07923 | 5337 ft | 152 kts | 318° |
| 2026-04-25 14:39 | 45.73294 | -111.08934 | 5353 ft | 150 kts | 314° |
| 2026-04-25 14:40 | 45.74022 | -111.09994 | 5288 ft | 150 kts | 313° |
| 2026-04-25 14:40 | 45.74778 | -111.11055 | 5179 ft | 154 kts | 314° |
| 2026-04-25 14:40 | 45.75549 | -111.12116 | 4939 ft | 154 kts | 313° |
| 2026-04-25 14:40 | 45.76324 | -111.13196 | 4712 ft | 159 kts | 313° |
| 2026-04-25 14:41 | 45.77112 | -111.14285 | 4484 ft | 151 kts | 312° |
| 2026-04-25 14:41 | 45.77776 | -111.15215 | 4456 ft | 106 kts | 316° |
| 2026-04-25 14:41 | 45.77940 | -111.15493 | 4453 ft | 7 kts | 261° |
| 2026-04-25 14:41 | 45.77914 | -111.15571 | 4452 ft | 13 kts | 240° |
| 2026-04-25 14:42 | 45.77843 | -111.15744 | 4452 ft | 23 kts | 229° |
| 2026-04-25 14:42 | 45.77803 | -111.15872 | 4452 ft | 17 kts | 264° |
| 2026-04-25 14:42 | 45.77796 | -111.15938 | 4452 ft | 0 kts | 261° |